< < Back
Terminal Aerodrome Forecast


Current Version              Previous Versions:   1  2  3  4  5  6  7  8  9  

Terminal Aerodrome Forecast

103
FTUS44 KHUN 020520
TAFHSV
TAF
KHSV 020520Z 0206/0306 19004KT 4SM BR VCSH SCT030 OVC150
     FM020900 22004KT 4SM BR VCSH BKN025 OVC080
      TEMPO 0211/0213 4SM TSRA OVC030CB
     FM021600 21011KT 6SM TSRA BKN030CB OVC120
     FM030000 21008KT P6SM VCTS SCT030CB BKN080=

Latest METAR

184
SAUS80 KWBC 030400
MTRHSV
METAR KHSV 030353Z 22007KT 10SM -RA OVC055 26/22 A2994 RMK AO2 RAB40
SLP129 P0000 T02610217


USA.gov is the U.S. government's official web portal to all federal, state and local government web resources and services.